createdAt,value
2019-02-28T00:00:37.224Z,97906.30
2019-02-28T00:03:01.992Z,97909.48
2019-02-28T00:05:29.382Z,97910.88
2019-02-28T00:07:56.796Z,97907.14
2019-02-28T00:10:24.188Z,97904.80
2019-02-28T00:12:51.600Z,97911.11
2019-02-28T00:15:19.000Z,97905.13
2019-02-28T00:17:46.529Z,97914.27
2019-02-28T00:20:13.918Z,97905.05
2019-02-28T00:22:41.369Z,97902.91
2019-02-28T00:25:08.758Z,97913.58
2019-02-28T00:27:36.668Z,97910.55
2019-02-28T00:30:05.995Z,97898.92
2019-02-28T00:32:31.492Z,97903.88
2019-02-28T00:34:58.894Z,97904.20
2019-02-28T00:37:26.307Z,97904.71
2019-02-28T00:39:54.244Z,97900.57
2019-02-28T00:42:21.639Z,97910.03
2019-02-28T00:44:49.046Z,97903.73
2019-02-28T00:47:17.110Z,97904.56
2019-02-28T00:49:43.865Z,97904.03
2019-02-28T00:52:11.266Z,97901.66
2019-02-28T00:54:42.984Z,97905.48
2019-02-28T00:57:06.164Z,97898.95
2019-02-28T00:59:33.620Z,97903.58
2019-02-28T01:02:01.037Z,97898.03
2019-02-28T01:04:30.032Z,97897.83
2019-02-28T01:06:55.925Z,97894.16
2019-02-28T01:09:23.352Z,97888.83
2019-02-28T01:11:50.744Z,97896.83
2019-02-28T01:14:18.152Z,97895.23
2019-02-28T01:16:45.586Z,97890.64
2019-02-28T01:19:13.151Z,97887.40
2019-02-28T01:21:41.450Z,97890.13
2019-02-28T01:24:08.924Z,97891.27
2019-02-28T01:26:36.377Z,97889.22
2019-02-28T01:29:03.807Z,97887.14
2019-02-28T01:31:31.282Z,97877.62
2019-02-28T01:33:58.893Z,97887.65
2019-02-28T01:36:26.206Z,97884.75
2019-02-28T01:38:57.781Z,97883.36
2019-02-28T01:41:21.026Z,97886.06
2019-02-28T01:43:48.451Z,97885.90
2019-02-28T01:46:17.197Z,97893.32
2019-02-28T01:48:43.480Z,97883.98
2019-02-28T01:51:10.970Z,97889.71
2019-02-28T01:53:38.390Z,97884.51
2019-02-28T01:56:05.852Z,97881.94
2019-02-28T01:58:33.311Z,97877.69
2019-02-28T02:01:00.705Z,97873.30
2019-02-28T02:03:28.107Z,97871.11
2019-02-28T02:05:55.516Z,97866.23
2019-02-28T02:08:22.909Z,97862.83
2019-02-28T02:10:54.973Z,97858.85
2019-02-28T02:13:17.744Z,97860.86
2019-02-28T02:15:45.179Z,97851.37
2019-02-28T02:18:12.653Z,97857.22
2019-02-28T02:20:40.049Z,97861.55
2019-02-28T02:23:07.487Z,97858.34
2019-02-28T02:25:37.609Z,97858.34
2019-02-28T02:28:02.388Z,97852.67
2019-02-28T02:30:29.788Z,97855.89
2019-02-28T02:32:57.201Z,97845.56
2019-02-28T02:35:24.615Z,97856.11
2019-02-28T02:37:52.015Z,97854.69
2019-02-28T02:40:23.120Z,97855.66
2019-02-28T02:42:48.631Z,97845.88
2019-02-28T02:45:14.273Z,97842.98
2019-02-28T02:47:41.694Z,97840.36
2019-02-28T02:50:09.094Z,97834.61
2019-02-28T02:52:36.666Z,97839.13
2019-02-28T02:55:04.081Z,97836.05
2019-02-28T02:57:31.487Z,97829.03
2019-02-28T02:59:58.895Z,97830.61
2019-02-28T03:02:28.765Z,97823.59
2019-02-28T03:04:57.998Z,97833.62
2019-02-28T03:07:24.576Z,97832.34
2019-02-28T03:09:48.564Z,97824.83
2019-02-28T03:12:15.964Z,97819.52
2019-02-28T03:14:43.379Z,97824.56
2019-02-28T03:17:12.161Z,97827.13
2019-02-28T03:19:38.217Z,97827.17
2019-02-28T03:22:05.631Z,97829.58
2019-02-28T03:24:33.104Z,97820.23
2019-02-28T03:27:00.976Z,97813.63
2019-02-28T03:29:28.412Z,97821.06
2019-02-28T03:31:59.123Z,97831.57
2019-02-28T03:34:23.333Z,97831.88
2019-02-28T03:36:55.370Z,97837.64
2019-02-28T03:39:24.158Z,97838.03
2019-02-28T03:41:49.158Z,97837.99
2019-02-28T03:44:19.789Z,97833.13
2019-02-28T03:46:46.454Z,97830.73
2019-02-28T03:49:11.469Z,97828.89
2019-02-28T03:51:35.416Z,97831.30
2019-02-28T03:54:02.835Z,97836.81
2019-02-28T03:56:30.252Z,97829.89
2019-02-28T03:58:57.635Z,97824.76
2019-02-28T04:01:25.108Z,97819.28
2019-02-28T04:03:52.602Z,97828.88
2019-02-28T04:06:20.003Z,97829.05
2019-02-28T04:08:47.408Z,97831.38
2019-02-28T04:11:14.910Z,97831.83
2019-02-28T04:13:42.319Z,97836.91
2019-02-28T04:16:10.081Z,97834.80
2019-02-28T04:18:44.218Z,97835.64
2019-02-28T04:21:04.563Z,97824.63
2019-02-28T04:23:36.193Z,97824.14
2019-02-28T04:26:00.302Z,97824.38
2019-02-28T04:28:27.692Z,97819.39
2019-02-28T04:30:55.357Z,97830.97
2019-02-28T04:33:22.936Z,97831.26
2019-02-28T04:35:50.381Z,97836.09
2019-02-28T04:38:20.510Z,97834.61
2019-02-28T04:40:45.304Z,97839.42
2019-02-28T04:43:12.749Z,97837.56
2019-02-28T04:45:40.141Z,97838.38
2019-02-28T04:48:07.664Z,97838.83
2019-02-28T04:50:35.113Z,97826.22
2019-02-28T04:53:02.572Z,97823.02
2019-02-28T04:55:30.711Z,97827.86
2019-02-28T04:57:57.507Z,97830.98
2019-02-28T05:00:24.910Z,97836.11
2019-02-28T05:02:54.860Z,97834.80
2019-02-28T05:05:19.758Z,97849.58
2019-02-28T05:07:47.146Z,97848.09
2019-02-28T05:10:14.543Z,97836.27
2019-02-28T05:12:41.951Z,97835.84
2019-02-28T05:15:12.329Z,97842.50
2019-02-28T05:17:39.728Z,97844.11
2019-02-28T05:20:07.344Z,97833.09
2019-02-28T05:22:34.628Z,97837.33
2019-02-28T05:25:02.033Z,97845.77
2019-02-28T05:27:34.933Z,97834.59
2019-02-28T05:29:56.897Z,97830.63
2019-02-28T05:32:24.321Z,97838.99
2019-02-28T05:34:51.863Z,97837.24
2019-02-28T05:37:19.272Z,97839.28
2019-02-28T05:39:46.699Z,97834.82
2019-02-28T05:42:14.161Z,97832.96
2019-02-28T05:44:41.566Z,97836.33
2019-02-28T05:47:08.954Z,97843.25
2019-02-28T05:49:36.354Z,97849.53
2019-02-28T05:52:03.807Z,97857.38
2019-02-28T05:54:31.224Z,97862.64
2019-02-28T05:56:58.631Z,97858.98
2019-02-28T05:59:27.404Z,97853.90
2019-02-28T06:01:53.473Z,97847.85
2019-02-28T06:04:20.889Z,97865.28
2019-02-28T06:06:51.251Z,97873.25
2019-02-28T06:09:15.967Z,97883.89
2019-02-28T06:11:43.946Z,97890.22
2019-02-28T06:14:10.863Z,97893.86
2019-02-28T06:16:38.273Z,97894.06
2019-02-28T06:19:08.345Z,97892.53
2019-02-28T06:21:33.133Z,97882.70
2019-02-28T06:24:00.587Z,97869.32
2019-02-28T06:26:28.067Z,97856.95
2019-02-28T06:28:55.472Z,97857.02
2019-02-28T06:31:22.876Z,97855.00
2019-02-28T06:33:50.362Z,97851.59
2019-02-28T06:36:17.859Z,97857.11
2019-02-28T06:38:45.278Z,97858.38
2019-02-28T06:41:12.756Z,97873.94
2019-02-28T06:43:40.161Z,97886.28
2019-02-28T06:46:08.758Z,97877.61
2019-02-28T06:48:35.951Z,97876.42
2019-02-28T06:51:03.371Z,97873.02
2019-02-28T06:53:33.678Z,97862.80
2019-02-28T06:55:58.182Z,97849.30
2019-02-28T06:58:25.596Z,97852.89
2019-02-28T07:00:53.006Z,97866.60
2019-02-28T07:03:20.421Z,97874.13
2019-02-28T07:05:47.848Z,97870.89
2019-02-28T07:08:15.262Z,97875.13
2019-02-28T07:10:44.934Z,97878.23
2019-02-28T07:13:11.848Z,97881.70
2019-02-28T07:15:37.642Z,97886.76
2019-02-28T07:18:05.175Z,97897.45
2019-02-28T07:20:35.023Z,97904.06
2019-02-28T07:23:00.021Z,97910.32
2019-02-28T07:25:27.594Z,97907.42
2019-02-28T07:27:55.239Z,97899.53
2019-02-28T07:30:22.761Z,97889.42
2019-02-28T07:32:50.357Z,97892.57
2019-02-28T07:35:17.790Z,97916.47
2019-02-28T07:37:45.218Z,97923.13
2019-02-28T07:40:15.519Z,97930.86
2019-02-28T07:42:40.079Z,97945.22
2019-02-28T07:45:07.518Z,97938.20
2019-02-28T07:47:34.970Z,97931.38
2019-02-28T07:50:02.391Z,97912.70
2019-02-28T07:52:33.536Z,97903.25
2019-02-28T07:54:57.216Z,97913.24
2019-02-28T07:57:24.674Z,97916.88
2019-02-28T07:59:52.116Z,97923.17
2019-02-28T08:02:19.586Z,97924.13
2019-02-28T08:04:50.663Z,97920.59
2019-02-28T08:07:15.777Z,97913.80
2019-02-28T08:09:42.980Z,97914.81
2019-02-28T08:12:09.914Z,97919.82
2019-02-28T08:14:36.857Z,97923.59
2019-02-28T08:17:05.417Z,97918.50
2019-02-28T08:19:31.886Z,97914.53
2019-02-28T08:22:00.220Z,97915.81
2019-02-28T08:24:27.645Z,97905.70
2019-02-28T08:26:55.051Z,97909.42
2019-02-28T08:29:22.469Z,97908.77
2019-02-28T08:31:49.890Z,97919.47
2019-02-28T08:34:16.864Z,97917.28
2019-02-28T08:36:46.758Z,97920.35
2019-02-28T08:39:13.399Z,97921.46
2019-02-28T08:41:40.346Z,97920.80
2019-02-28T08:44:07.313Z,97912.50
2019-02-28T08:46:34.506Z,97908.23
2019-02-28T08:49:06.308Z,97922.81
2019-02-28T08:51:31.028Z,97927.16
2019-02-28T08:53:55.854Z,97934.74
2019-02-28T08:56:22.856Z,97932.67
2019-02-28T08:58:49.846Z,97931.78
2019-02-28T09:01:17.256Z,97936.64
2019-02-28T09:03:44.667Z,97936.00
2019-02-28T09:06:12.076Z,97932.48
2019-02-28T09:08:39.568Z,97916.42
2019-02-28T09:11:06.543Z,97925.17
2019-02-28T09:13:34.079Z,97924.62
2019-02-28T09:16:01.891Z,97921.04
2019-02-28T09:18:28.963Z,97908.00
2019-02-28T09:20:56.543Z,97920.17
2019-02-28T09:23:24.128Z,97916.28
2019-02-28T09:25:53.387Z,97904.04
2019-02-28T09:28:18.655Z,97897.16
2019-02-28T09:30:47.779Z,97898.80
2019-02-28T09:33:15.258Z,97893.38
2019-02-28T09:35:46.249Z,97882.05
2019-02-28T09:38:13.421Z,97882.02
2019-02-28T09:40:37.536Z,97889.91
2019-02-28T09:43:04.966Z,97879.70
2019-02-28T09:45:32.406Z,97885.73
2019-02-28T09:48:02.001Z,97876.27
2019-02-28T09:50:27.375Z,97866.56
2019-02-28T09:52:54.775Z,97877.16
2019-02-28T09:55:22.240Z,97861.38
2019-02-28T09:57:53.710Z,97862.77
2019-02-28T10:00:20.582Z,97861.55
2019-02-28T10:02:48.002Z,97872.82
2019-02-28T10:05:15.417Z,97873.16
2019-02-28T10:07:42.855Z,97874.70
2019-02-28T10:10:14.037Z,97873.03
2019-02-28T10:12:43.060Z,97879.97
2019-02-28T10:15:11.568Z,97879.09
2019-02-28T10:17:39.030Z,97878.88
2019-02-28T10:20:09.156Z,97879.30
2019-02-28T10:22:36.608Z,97878.75
2019-02-28T10:25:06.531Z,97875.70
2019-02-28T10:27:31.431Z,97876.17
2019-02-28T10:29:58.864Z,97869.75
2019-02-28T10:32:26.334Z,97868.86
2019-02-28T10:34:53.755Z,97860.46
2019-02-28T10:37:22.766Z,97863.37
2019-02-28T10:39:49.026Z,97864.73
2019-02-28T10:42:16.430Z,97871.91
2019-02-28T10:44:43.855Z,97875.66
2019-02-28T10:47:10.838Z,97875.09
2019-02-28T10:49:37.802Z,97868.91
2019-02-28T10:52:04.783Z,97866.09
2019-02-28T10:54:32.184Z,97850.90
2019-02-28T10:56:59.138Z,97856.80
2019-02-28T10:59:26.107Z,97861.33
2019-02-28T11:01:53.543Z,97851.75
2019-02-28T11:04:21.015Z,97845.86
2019-02-28T11:06:48.453Z,97856.84
2019-02-28T11:09:18.329Z,97854.83
2019-02-28T11:11:45.619Z,97859.91
2019-02-28T11:14:10.891Z,97861.42
2019-02-28T11:16:38.528Z,97855.80
2019-02-28T11:19:06.068Z,97854.61
2019-02-28T11:21:33.518Z,97860.23
2019-02-28T11:24:01.044Z,97850.80
2019-02-28T11:26:28.609Z,97851.75
2019-02-28T11:28:55.546Z,97847.84
2019-02-28T11:31:22.589Z,97844.05
2019-02-28T11:33:49.741Z,97851.78
2019-02-28T11:36:16.732Z,97846.94
2019-02-28T11:38:43.674Z,97846.41
2019-02-28T11:41:11.095Z,97841.59
2019-02-28T11:43:38.668Z,97842.06
2019-02-28T11:46:05.957Z,97834.95
2019-02-28T11:48:33.384Z,97830.30
2019-02-28T11:51:00.803Z,97833.48
2019-02-28T11:53:28.297Z,97821.83
2019-02-28T11:55:55.720Z,97826.84
2019-02-28T11:58:23.147Z,97823.52
2019-02-28T12:00:50.706Z,97819.55
2019-02-28T12:03:18.114Z,97820.96
2019-02-28T12:05:50.139Z,97816.16
2019-02-28T12:08:12.949Z,97809.71
2019-02-28T12:10:40.545Z,97807.56
2019-02-28T12:13:07.992Z,97797.86
2019-02-28T12:15:39.167Z,97798.46
2019-02-28T12:18:05.794Z,97803.50
2019-02-28T12:20:33.237Z,97805.41
2019-02-28T12:23:00.695Z,97801.53
2019-02-28T12:25:28.119Z,97803.34
2019-02-28T12:27:55.607Z,97792.44
2019-02-28T12:30:26.852Z,97794.67
2019-02-28T12:32:54.263Z,97786.77
2019-02-28T12:35:21.776Z,97783.98
2019-02-28T12:37:49.327Z,97780.30
2019-02-28T12:40:17.439Z,97778.05
2019-02-28T12:42:45.073Z,97775.11
2019-02-28T12:45:32.265Z,97768.45
2019-02-28T12:47:59.756Z,97769.31
2019-02-28T12:50:29.451Z,97772.64
2019-02-28T12:52:53.927Z,97774.53
2019-02-28T12:55:20.888Z,97765.06
2019-02-28T12:57:47.863Z,97765.16
2019-02-28T13:00:15.633Z,97753.56
2019-02-28T13:02:43.525Z,97757.27
2019-02-28T13:05:14.818Z,97748.16
2019-02-28T13:07:36.538Z,97749.48
2019-02-28T13:10:04.090Z,97750.30
2019-02-28T13:12:30.640Z,97742.36
2019-02-28T13:14:57.738Z,97744.45
2019-02-28T13:17:24.661Z,97742.28
2019-02-28T13:19:53.204Z,97733.94
2019-02-28T13:22:18.866Z,97733.94
2019-02-28T13:24:47.566Z,97726.06
2019-02-28T13:27:13.550Z,97729.06
2019-02-28T13:29:40.974Z,97723.86
2019-02-28T13:32:08.617Z,97724.63
2019-02-28T13:34:36.039Z,97729.48
2019-02-28T13:37:03.501Z,97720.92
2019-02-28T13:39:31.594Z,97722.73
2019-02-28T13:41:58.705Z,97720.09
2019-02-28T13:44:25.757Z,97712.74
2019-02-28T13:46:53.168Z,97704.75
2019-02-28T13:49:20.556Z,97710.00
2019-02-28T13:51:47.966Z,97707.49
2019-02-28T13:54:15.369Z,97704.94
2019-02-28T13:56:42.775Z,97705.18
2019-02-28T13:59:10.338Z,97695.53
2019-02-28T14:01:37.757Z,97691.42
2019-02-28T14:04:05.177Z,97686.55
2019-02-28T14:06:32.617Z,97680.84
2019-02-28T14:09:00.011Z,97680.20
2019-02-28T14:11:27.461Z,97675.30
2019-02-28T14:13:54.871Z,97679.05
2019-02-28T14:16:26.362Z,97679.38
2019-02-28T14:18:49.793Z,97674.16
2019-02-28T14:21:17.895Z,97672.31
2019-02-28T14:23:45.289Z,97671.36
2019-02-28T14:26:14.051Z,97676.39
2019-02-28T14:28:40.921Z,97670.36
2019-02-28T14:31:08.357Z,97661.27
2019-02-28T14:33:35.756Z,97648.06
2019-02-28T14:36:03.195Z,97652.30
2019-02-28T14:38:32.826Z,97637.08
2019-02-28T14:40:59.401Z,97646.84
2019-02-28T14:43:25.503Z,97651.53
2019-02-28T14:45:53.084Z,97651.66
2019-02-28T14:48:20.492Z,97653.14
2019-02-28T14:50:50.734Z,97654.09
2019-02-28T14:53:15.378Z,97658.30
2019-02-28T14:55:42.775Z,97647.94
2019-02-28T14:58:10.330Z,97642.44
2019-02-28T15:00:38.987Z,97646.68
2019-02-28T15:03:05.290Z,97640.03
2019-02-28T15:05:34.503Z,97638.34
2019-02-28T15:08:01.884Z,97637.67
2019-02-28T15:10:29.306Z,97637.43
2019-02-28T15:12:58.661Z,97646.01
2019-02-28T15:15:24.476Z,97651.33
2019-02-28T15:17:51.877Z,97647.50
2019-02-28T15:20:19.305Z,97650.30
2019-02-28T15:22:46.793Z,97658.97
2019-02-28T15:25:19.409Z,97649.84
2019-02-28T15:27:46.054Z,97648.54
2019-02-28T15:30:16.258Z,97644.58
2019-02-28T15:32:43.683Z,97647.67
2019-02-28T15:35:12.514Z,97650.59
2019-02-28T15:37:38.530Z,97644.34
2019-02-28T15:40:08.667Z,97644.45
2019-02-28T15:42:36.099Z,97656.02
2019-02-28T15:45:04.120Z,97656.02
2019-02-28T15:47:31.089Z,97642.75
2019-02-28T15:49:58.504Z,97647.55
2019-02-28T15:52:25.963Z,97644.17
2019-02-28T15:54:56.520Z,97644.72
2019-02-28T15:57:20.988Z,97650.61
2019-02-28T15:59:49.738Z,97648.52
2019-02-28T16:02:15.906Z,97654.09
2019-02-28T16:04:43.306Z,97646.66
2019-02-28T16:07:10.762Z,97644.89
2019-02-28T16:09:38.208Z,97645.02
2019-02-28T16:12:05.625Z,97644.89
2019-02-28T16:14:34.691Z,97636.59
2019-02-28T16:17:03.375Z,97646.36
2019-02-28T16:19:28.032Z,97647.92
2019-02-28T16:21:55.626Z,97633.75
2019-02-28T16:24:23.463Z,97637.78
2019-02-28T16:26:53.526Z,97631.61
2019-02-28T16:29:20.652Z,97636.27
2019-02-28T16:31:45.750Z,97646.47
2019-02-28T16:34:13.186Z,97650.04
2019-02-28T16:36:40.646Z,97648.33
2019-02-28T16:39:08.057Z,97656.09
2019-02-28T16:41:36.850Z,97660.48
2019-02-28T16:44:02.688Z,97648.52
2019-02-28T16:46:30.268Z,97654.70
2019-02-28T16:48:57.523Z,97649.20
2019-02-28T16:51:26.304Z,97645.72
2019-02-28T16:53:53.194Z,97650.45
2019-02-28T16:56:19.813Z,97639.74
2019-02-28T16:58:47.243Z,97634.32
2019-02-28T17:01:17.456Z,97642.95
2019-02-28T17:03:42.817Z,97656.75
2019-02-28T17:06:09.491Z,97667.68
2019-02-28T17:08:36.911Z,97675.01
2019-02-28T17:11:04.325Z,97673.91
2019-02-28T17:13:32.016Z,97668.14
2019-02-28T17:16:02.374Z,97664.91
2019-02-28T17:18:28.635Z,97670.03
2019-02-28T17:20:56.218Z,97682.18
2019-02-28T17:23:23.616Z,97679.67
2019-02-28T17:25:53.572Z,97669.39
2019-02-28T17:28:24.430Z,97674.30
2019-02-28T17:30:57.368Z,97684.13
2019-02-28T17:33:24.785Z,97679.75
2019-02-28T17:35:52.219Z,97688.38
2019-02-28T17:38:19.676Z,97696.51
2019-02-28T17:40:47.121Z,97698.52
2019-02-28T17:43:14.579Z,97701.17
2019-02-28T17:45:41.971Z,97696.19
2019-02-28T17:48:12.728Z,97702.17
2019-02-28T17:50:42.834Z,97695.66
2019-02-28T17:53:11.490Z,97704.27
2019-02-28T17:55:45.663Z,97698.84
2019-02-28T17:58:14.043Z,97703.84
2019-02-28T18:00:42.240Z,97715.63
2019-02-28T18:06:29.363Z,97700.95
2019-02-28T18:09:12.691Z,97695.92
2019-02-28T18:14:57.004Z,97695.19
2019-02-28T18:17:34.270Z,97702.73
2019-02-28T18:20:39.284Z,97705.50
2019-02-28T18:23:24.883Z,97699.55
2019-02-28T18:28:54.836Z,97709.89
2019-02-28T18:31:22.216Z,97716.86
2019-02-28T18:33:48.858Z,97716.27
2019-02-28T18:36:16.453Z,97718.99
2019-02-28T18:38:44.061Z,97722.28
2019-02-28T18:41:11.441Z,97720.01
2019-02-28T18:43:40.427Z,97724.08
2019-02-28T18:46:06.301Z,97722.85
2019-02-28T18:48:33.762Z,97718.12
2019-02-28T18:51:01.157Z,97722.55
2019-02-28T18:53:28.607Z,97729.05
2019-02-28T18:55:56.003Z,97731.44
2019-02-28T18:58:23.429Z,97732.13
2019-02-28T19:00:51.215Z,97732.07
2019-02-28T19:03:18.604Z,97739.88
2019-02-28T19:05:45.996Z,97740.81
2019-02-28T19:08:13.416Z,97738.41
2019-02-28T19:10:41.021Z,97741.57
2019-02-28T19:13:08.662Z,97746.91
2019-02-28T19:15:36.086Z,97743.75
2019-02-28T19:18:03.544Z,97753.16
2019-02-28T19:20:30.953Z,97755.19
2019-02-28T19:22:58.555Z,97760.37
2019-02-28T19:25:26.061Z,97760.80
2019-02-28T19:27:53.463Z,97761.08
2019-02-28T19:30:20.894Z,97779.77
2019-02-28T19:32:48.294Z,97789.78
2019-02-28T19:35:15.713Z,97780.98
2019-02-28T19:37:43.141Z,97779.67
2019-02-28T19:40:11.324Z,97795.37
2019-02-28T19:42:38.743Z,97803.73
2019-02-28T19:45:09.981Z,97808.85
2019-02-28T19:47:37.364Z,97807.81
2019-02-28T19:50:04.777Z,97817.02
2019-02-28T19:52:32.211Z,97832.17
2019-02-28T19:54:59.648Z,97831.75
2019-02-28T19:57:27.050Z,97831.95
2019-02-28T19:59:54.483Z,97839.48
2019-02-28T20:02:21.970Z,97840.38
2019-02-28T20:04:49.374Z,97848.69
2019-02-28T20:07:16.806Z,97843.84
2019-02-28T20:09:44.284Z,97844.97
2019-02-28T20:12:11.815Z,97850.88
2019-02-28T20:14:39.206Z,97845.30
2019-02-28T20:17:06.617Z,97854.98
2019-02-28T20:19:34.148Z,97852.56
2019-02-28T20:22:01.578Z,97853.98
2019-02-28T20:24:29.022Z,97853.58
2019-02-28T20:26:56.417Z,97855.50
2019-02-28T20:31:57.619Z,97859.07
2019-02-28T20:34:25.143Z,97848.13
2019-02-28T20:36:52.619Z,97852.47
2019-02-28T20:39:20.095Z,97853.86
2019-02-28T20:41:47.543Z,97855.52
2019-02-28T20:44:14.934Z,97850.11
2019-02-28T20:46:42.387Z,97846.04
2019-02-28T20:49:09.855Z,97843.99
2019-02-28T20:51:37.353Z,97841.94
2019-02-28T20:54:04.874Z,97848.80
2019-02-28T20:56:32.378Z,97846.82
2019-02-28T20:58:59.978Z,97842.25
2019-02-28T21:01:27.370Z,97838.48
2019-02-28T21:03:56.630Z,97843.43
2019-02-28T21:06:24.121Z,97844.75
2019-02-28T21:08:51.047Z,97847.11
2019-02-28T21:11:18.716Z,97852.91
2019-02-28T21:13:46.146Z,97841.73
2019-02-28T21:16:13.551Z,97843.34
2019-02-28T21:18:40.984Z,97836.34
2019-02-28T21:21:08.432Z,97842.56
2019-02-28T21:23:35.935Z,97841.09
2019-02-28T21:26:03.330Z,97840.02
2019-02-28T21:28:30.772Z,97835.86
2019-02-28T21:30:58.174Z,97837.25
2019-02-28T21:33:25.789Z,97839.10
2019-02-28T21:35:53.198Z,97842.80
2019-02-28T21:38:20.631Z,97839.41
2019-02-28T21:40:48.023Z,97847.55
2019-02-28T21:43:15.424Z,97833.50
2019-02-28T21:45:42.843Z,97830.34
2019-02-28T21:48:10.597Z,97839.86
2019-02-28T21:50:38.023Z,97838.67
2019-02-28T21:53:05.411Z,97841.08
2019-02-28T21:55:32.851Z,97829.14
2019-02-28T21:58:00.282Z,97834.95
2019-02-28T22:00:27.680Z,97829.08
2019-02-28T22:02:55.086Z,97826.45
2019-02-28T22:05:22.566Z,97823.47
2019-02-28T22:07:49.963Z,97825.02
2019-02-28T22:10:17.477Z,97821.67
2019-02-28T22:12:44.982Z,97819.81
2019-02-28T22:15:13.977Z,97823.61
2019-02-28T22:17:41.634Z,97818.06
2019-02-28T22:20:09.145Z,97812.12
2019-02-28T22:22:37.632Z,97810.38
2019-02-28T22:25:05.091Z,97807.81
2019-02-28T22:27:32.720Z,97808.98
2019-02-28T22:30:01.654Z,97806.71
2019-02-28T22:32:29.309Z,97803.47
2019-02-28T22:34:56.991Z,97801.81
2019-02-28T22:37:24.546Z,97805.31
2019-02-28T22:39:52.967Z,97807.19
2019-02-28T22:42:22.421Z,97794.04
2019-02-28T22:44:48.142Z,97799.00
2019-02-28T22:47:16.326Z,97797.48
2019-02-28T22:49:43.864Z,97798.23
2019-02-28T22:52:11.358Z,97792.09
2019-02-28T22:54:38.803Z,97793.50
2019-02-28T22:57:07.932Z,97794.80
2019-02-28T22:59:35.473Z,97793.42
2019-02-28T23:02:03.084Z,97789.29
2019-02-28T23:04:30.624Z,97795.03
2019-02-28T23:06:58.027Z,97799.88
2019-02-28T23:09:25.578Z,97793.83
2019-02-28T23:11:54.023Z,97791.66
2019-02-28T23:14:21.603Z,97792.83
2019-02-28T23:16:48.997Z,97788.34
2019-02-28T23:19:16.403Z,97791.11
2019-02-28T23:21:43.845Z,97780.30
2019-02-28T23:24:11.254Z,97774.03
2019-02-28T23:26:50.434Z,97777.61
2019-02-28T23:29:18.028Z,97779.98
2019-02-28T23:34:40.106Z,97771.98
2019-02-28T23:37:07.532Z,97758.92
2019-02-28T23:39:35.121Z,97761.49
2019-02-28T23:42:02.552Z,97764.05
2019-02-28T23:44:29.936Z,97759.56
2019-02-28T23:46:57.335Z,97755.64
2019-02-28T23:49:25.127Z,97753.63
2019-02-28T23:51:52.532Z,97744.09
2019-02-28T23:54:19.935Z,97750.89
2019-02-28T23:56:47.347Z,97757.46
2019-02-28T23:59:14.776Z,97755.38
